Terminal Aerodrome Forecast
Issued by NWS Wakefield, VA

Home | Current Version | Previous Version | Text Only | Print | Product List | Glossary On
Versions: 1 2 3 4 5 6 7 8 9 10 11 12 13 14 15 16 17 18 19 20 21 22 23 24 25
048
FTUS41 KAKQ 282340
TAFSBY
TAF
KSBY 282340Z 2900/2924 16007KT P6SM -RA VCTS SCT030CB BKN060
      TEMPO 2900/2902 2SM TSRA OVC015CB
     FM290200 13004KT P6SM -RA VCTS OVC035CB
     FM290600 15005KT 4SM -RA BR OVC050
     FM291000 20006KT 3SM BR SCT050 BKN250
     FM291300 22008KT P6SM SCT035 BKN050=

USA.gov is the U.S. government's official web portal to all federal, state and local government web resources and services.